sensor_id;sensor_type;location;lat;lon;timestamp;P1;durP1;ratioP1;P2;durP2;ratioP2
21837;SDS011;11081;45.946;6.140;2023-12-28T00:00:31;14.07;;;7.40;;
21837;SDS011;11081;45.946;6.140;2023-12-28T00:02:59;12.77;;;7.47;;
21837;SDS011;11081;45.946;6.140;2023-12-28T00:05:27;13.10;;;7.23;;
21837;SDS011;11081;45.946;6.140;2023-12-28T00:07:55;12.80;;;6.93;;
21837;SDS011;11081;45.946;6.140;2023-12-28T00:10:25;12.80;;;6.93;;
21837;SDS011;11081;45.946;6.140;2023-12-28T00:12:54;10.40;;;6.83;;
21837;SDS011;11081;45.946;6.140;2023-12-28T00:15:23;11.70;;;7.17;;
21837;SDS011;11081;45.946;6.140;2023-12-28T00:17:51;11.13;;;7.17;;
21837;SDS011;11081;45.946;6.140;2023-12-28T00:20:20;15.30;;;7.33;;
21837;SDS011;11081;45.946;6.140;2023-12-28T00:22:47;11.67;;;7.43;;
21837;SDS011;11081;45.946;6.140;2023-12-28T00:25:15;12.57;;;7.63;;
21837;SDS011;11081;45.946;6.140;2023-12-28T00:27:43;11.77;;;6.67;;
21837;SDS011;11081;45.946;6.140;2023-12-28T00:30:12;11.13;;;6.70;;
21837;SDS011;11081;45.946;6.140;2023-12-28T00:32:45;12.13;;;7.57;;
21837;SDS011;11081;45.946;6.140;2023-12-28T00:35:13;14.13;;;7.07;;
21837;SDS011;11081;45.946;6.140;2023-12-28T00:37:41;12.13;;;7.37;;
21837;SDS011;11081;45.946;6.140;2023-12-28T00:40:10;15.10;;;8.00;;
21837;SDS011;11081;45.946;6.140;2023-12-28T00:42:38;12.37;;;7.63;;
21837;SDS011;11081;45.946;6.140;2023-12-28T00:45:07;13.50;;;7.30;;
21837;SDS011;11081;45.946;6.140;2023-12-28T00:47:36;11.47;;;6.90;;
21837;SDS011;11081;45.946;6.140;2023-12-28T00:50:06;14.47;;;7.47;;
21837;SDS011;11081;45.946;6.140;2023-12-28T00:52:34;12.10;;;6.83;;
21837;SDS011;11081;45.946;6.140;2023-12-28T00:55:02;14.93;;;7.50;;
21837;SDS011;11081;45.946;6.140;2023-12-28T00:57:30;10.90;;;6.77;;
21837;SDS011;11081;45.946;6.140;2023-12-28T01:00:00;13.63;;;6.97;;
21837;SDS011;11081;45.946;6.140;2023-12-28T01:02:28;15.20;;;7.17;;
21837;SDS011;11081;45.946;6.140;2023-12-28T01:04:56;12.90;;;6.90;;
21837;SDS011;11081;45.946;6.140;2023-12-28T01:07:25;11.57;;;6.23;;
21837;SDS011;11081;45.946;6.140;2023-12-28T01:09:53;13.20;;;7.47;;
21837;SDS011;11081;45.946;6.140;2023-12-28T01:12:23;11.37;;;6.90;;
21837;SDS011;11081;45.946;6.140;2023-12-28T01:14:52;14.07;;;6.87;;
21837;SDS011;11081;45.946;6.140;2023-12-28T01:17:20;12.20;;;6.87;;
21837;SDS011;11081;45.946;6.140;2023-12-28T01:19:48;11.33;;;6.40;;
21837;SDS011;11081;45.946;6.140;2023-12-28T01:22:16;11.07;;;6.27;;
21837;SDS011;11081;45.946;6.140;2023-12-28T01:24:47;13.70;;;7.20;;
21837;SDS011;11081;45.946;6.140;2023-12-28T01:27:16;12.53;;;7.00;;
21837;SDS011;11081;45.946;6.140;2023-12-28T01:29:44;9.83;;;6.30;;
21837;SDS011;11081;45.946;6.140;2023-12-28T01:32:12;10.03;;;6.23;;
21837;SDS011;11081;45.946;6.140;2023-12-28T01:34:40;10.37;;;6.13;;
21837;SDS011;11081;45.946;6.140;2023-12-28T01:37:08;6.87;;;5.07;;
21837;SDS011;11081;45.946;6.140;2023-12-28T01:39:36;11.40;;;6.00;;
21837;SDS011;11081;45.946;6.140;2023-12-28T01:42:06;8.60;;;5.33;;
21837;SDS011;11081;45.946;6.140;2023-12-28T01:44:34;8.67;;;5.63;;
21837;SDS011;11081;45.946;6.140;2023-12-28T01:47:02;8.57;;;5.27;;
21837;SDS011;11081;45.946;6.140;2023-12-28T01:49:30;10.00;;;5.27;;
21837;SDS011;11081;45.946;6.140;2023-12-28T01:52:00;8.57;;;5.37;;
21837;SDS011;11081;45.946;6.140;2023-12-28T01:54:29;9.50;;;5.40;;
21837;SDS011;11081;45.946;6.140;2023-12-28T01:56:57;7.93;;;5.10;;
21837;SDS011;11081;45.946;6.140;2023-12-28T01:59:29;8.57;;;4.93;;
21837;SDS011;11081;45.946;6.140;2023-12-28T02:01:57;8.93;;;5.43;;
21837;SDS011;11081;45.946;6.140;2023-12-28T02:04:26;7.80;;;4.70;;
21837;SDS011;11081;45.946;6.140;2023-12-28T02:06:56;7.70;;;4.50;;
21837;SDS011;11081;45.946;6.140;2023-12-28T02:09:25;10.17;;;5.00;;
21837;SDS011;11081;45.946;6.140;2023-12-28T02:11:54;9.80;;;5.77;;
21837;SDS011;11081;45.946;6.140;2023-12-28T02:14:22;10.07;;;5.57;;
21837;SDS011;11081;45.946;6.140;2023-12-28T02:16:53;9.10;;;5.00;;
21837;SDS011;11081;45.946;6.140;2023-12-28T02:19:25;9.57;;;5.60;;
21837;SDS011;11081;45.946;6.140;2023-12-28T02:21:59;11.53;;;5.70;;
21837;SDS011;11081;45.946;6.140;2023-12-28T02:24:28;11.13;;;5.23;;
21837;SDS011;11081;45.946;6.140;2023-12-28T02:26:57;10.07;;;5.13;;
21837;SDS011;11081;45.946;6.140;2023-12-28T02:29:25;9.10;;;5.17;;
21837;SDS011;11081;45.946;6.140;2023-12-28T02:31:57;7.53;;;4.63;;
21837;SDS011;11081;45.946;6.140;2023-12-28T02:34:32;8.87;;;4.87;;
21837;SDS011;11081;45.946;6.140;2023-12-28T02:37:05;10.10;;;5.40;;
21837;SDS011;11081;45.946;6.140;2023-12-28T02:39:33;9.57;;;5.53;;
21837;SDS011;11081;45.946;6.140;2023-12-28T02:42:05;10.67;;;5.90;;
21837;SDS011;11081;45.946;6.140;2023-12-28T02:44:33;10.37;;;4.53;;
21837;SDS011;11081;45.946;6.140;2023-12-28T02:47:01;8.83;;;4.73;;
21837;SDS011;11081;45.946;6.140;2023-12-28T02:49:29;12.90;;;5.23;;
21837;SDS011;11081;45.946;6.140;2023-12-28T02:51:57;9.00;;;5.70;;
21837;SDS011;11081;45.946;6.140;2023-12-28T02:54:25;11.93;;;5.73;;
21837;SDS011;11081;45.946;6.140;2023-12-28T02:56:53;12.10;;;6.03;;
21837;SDS011;11081;45.946;6.140;2023-12-28T02:59:23;7.70;;;4.77;;
21837;SDS011;11081;45.946;6.140;2023-12-28T03:01:51;9.33;;;5.87;;
21837;SDS011;11081;45.946;6.140;2023-12-28T03:04:19;8.83;;;5.30;;
21837;SDS011;11081;45.946;6.140;2023-12-28T03:06:47;10.57;;;5.83;;
21837;SDS011;11081;45.946;6.140;2023-12-28T03:09:16;9.83;;;5.40;;
21837;SDS011;11081;45.946;6.140;2023-12-28T03:11:44;9.80;;;6.07;;
21837;SDS011;11081;45.946;6.140;2023-12-28T03:14:12;10.63;;;5.80;;
21837;SDS011;11081;45.946;6.140;2023-12-28T03:16:41;8.30;;;5.50;;
21837;SDS011;11081;45.946;6.140;2023-12-28T03:19:09;9.33;;;6.00;;
21837;SDS011;11081;45.946;6.140;2023-12-28T03:21:38;11.03;;;5.47;;
21837;SDS011;11081;45.946;6.140;2023-12-28T03:24:06;10.90;;;6.40;;
21837;SDS011;11081;45.946;6.140;2023-12-28T03:26:37;10.33;;;6.27;;
21837;SDS011;11081;45.946;6.140;2023-12-28T03:29:05;9.57;;;5.57;;
21837;SDS011;11081;45.946;6.140;2023-12-28T03:31:38;12.67;;;5.43;;
21837;SDS011;11081;45.946;6.140;2023-12-28T03:34:08;9.77;;;5.70;;
21837;SDS011;11081;45.946;6.140;2023-12-28T03:36:36;7.73;;;5.53;;
21837;SDS011;11081;45.946;6.140;2023-12-28T03:39:04;11.30;;;6.20;;
21837;SDS011;11081;45.946;6.140;2023-12-28T03:41:32;9.53;;;6.03;;
21837;SDS011;11081;45.946;6.140;2023-12-28T03:44:00;9.20;;;5.97;;
21837;SDS011;11081;45.946;6.140;2023-12-28T03:46:28;11.07;;;6.20;;
21837;SDS011;11081;45.946;6.140;2023-12-28T03:48:56;10.97;;;6.40;;
21837;SDS011;11081;45.946;6.140;2023-12-28T03:51:26;10.53;;;5.63;;
21837;SDS011;11081;45.946;6.140;2023-12-28T03:53:54;11.73;;;5.67;;
21837;SDS011;11081;45.946;6.140;2023-12-28T03:56:22;13.50;;;6.87;;
21837;SDS011;11081;45.946;6.140;2023-12-28T03:58:52;10.43;;;5.97;;
21837;SDS011;11081;45.946;6.140;2023-12-28T04:01:21;10.53;;;6.40;;
21837;SDS011;11081;45.946;6.140;2023-12-28T04:03:50;8.93;;;5.50;;
21837;SDS011;11081;45.946;6.140;2023-12-28T04:06:18;12.60;;;5.50;;
21837;SDS011;11081;45.946;6.140;2023-12-28T04:08:47;9.93;;;5.23;;
21837;SDS011;11081;45.946;6.140;2023-12-28T04:11:15;13.87;;;6.03;;
21837;SDS011;11081;45.946;6.140;2023-12-28T04:13:43;10.80;;;5.90;;
21837;SDS011;11081;45.946;6.140;2023-12-28T04:16:12;9.87;;;5.87;;
21837;SDS011;11081;45.946;6.140;2023-12-28T04:18:40;8.80;;;5.77;;
21837;SDS011;11081;45.946;6.140;2023-12-28T04:21:09;11.00;;;5.47;;
21837;SDS011;11081;45.946;6.140;2023-12-28T04:23:40;9.53;;;5.53;;
21837;SDS011;11081;45.946;6.140;2023-12-28T04:26:09;9.83;;;5.73;;
21837;SDS011;11081;45.946;6.140;2023-12-28T04:28:37;10.27;;;5.73;;
21837;SDS011;11081;45.946;6.140;2023-12-28T04:31:06;11.67;;;5.30;;
21837;SDS011;11081;45.946;6.140;2023-12-28T04:33:35;8.17;;;5.00;;
21837;SDS011;11081;45.946;6.140;2023-12-28T04:36:04;9.33;;;5.73;;
21837;SDS011;11081;45.946;6.140;2023-12-28T04:38:32;11.83;;;5.63;;
21837;SDS011;11081;45.946;6.140;2023-12-28T04:41:01;9.63;;;5.63;;
21837;SDS011;11081;45.946;6.140;2023-12-28T04:43:30;9.80;;;5.43;;
21837;SDS011;11081;45.946;6.140;2023-12-28T04:46:02;8.43;;;5.07;;
21837;SDS011;11081;45.946;6.140;2023-12-28T04:48:31;8.70;;;5.43;;
21837;SDS011;11081;45.946;6.140;2023-12-28T04:51:01;8.90;;;5.93;;
21837;SDS011;11081;45.946;6.140;2023-12-28T04:53:30;15.60;;;5.47;;
21837;SDS011;11081;45.946;6.140;2023-12-28T04:55:58;10.93;;;5.60;;
21837;SDS011;11081;45.946;6.140;2023-12-28T04:58:26;9.03;;;5.40;;
21837;SDS011;11081;45.946;6.140;2023-12-28T05:00:55;9.23;;;5.73;;
21837;SDS011;11081;45.946;6.140;2023-12-28T05:03:23;8.40;;;5.23;;
21837;SDS011;11081;45.946;6.140;2023-12-28T05:05:51;11.33;;;6.07;;
21837;SDS011;11081;45.946;6.140;2023-12-28T05:08:19;9.30;;;5.47;;
21837;SDS011;11081;45.946;6.140;2023-12-28T05:10:47;9.00;;;5.43;;
21837;SDS011;11081;45.946;6.140;2023-12-28T05:13:15;10.97;;;6.00;;
21837;SDS011;11081;45.946;6.140;2023-12-28T05:15:43;10.20;;;5.50;;
21837;SDS011;11081;45.946;6.140;2023-12-28T05:18:13;9.90;;;6.67;;
21837;SDS011;11081;45.946;6.140;2023-12-28T05:20:41;10.33;;;5.60;;
21837;SDS011;11081;45.946;6.140;2023-12-28T05:23:09;9.97;;;5.40;;
21837;SDS011;11081;45.946;6.140;2023-12-28T05:25:37;10.80;;;5.83;;
21837;SDS011;11081;45.946;6.140;2023-12-28T05:28:05;11.93;;;5.67;;
21837;SDS011;11081;45.946;6.140;2023-12-28T05:30:33;8.93;;;5.50;;
21837;SDS011;11081;45.946;6.140;2023-12-28T05:33:01;8.23;;;5.13;;
21837;SDS011;11081;45.946;6.140;2023-12-28T05:35:30;8.87;;;5.50;;
21837;SDS011;11081;45.946;6.140;2023-12-28T05:37:58;9.87;;;5.20;;
21837;SDS011;11081;45.946;6.140;2023-12-28T05:40:26;10.20;;;5.20;;
21837;SDS011;11081;45.946;6.140;2023-12-28T05:42:54;10.17;;;5.57;;
21837;SDS011;11081;45.946;6.140;2023-12-28T05:45:22;9.20;;;5.00;;
21837;SDS011;11081;45.946;6.140;2023-12-28T05:47:50;7.87;;;5.37;;
21837;SDS011;11081;45.946;6.140;2023-12-28T05:50:18;6.83;;;4.40;;
21837;SDS011;11081;45.946;6.140;2023-12-28T05:52:47;8.63;;;4.57;;
21837;SDS011;11081;45.946;6.140;2023-12-28T05:55:15;10.43;;;4.50;;
21837;SDS011;11081;45.946;6.140;2023-12-28T05:57:43;6.73;;;4.30;;
21837;SDS011;11081;45.946;6.140;2023-12-28T06:00:12;7.33;;;4.53;;
21837;SDS011;11081;45.946;6.140;2023-12-28T06:02:41;6.43;;;4.60;;
21837;SDS011;11081;45.946;6.140;2023-12-28T06:05:09;6.80;;;4.03;;
21837;SDS011;11081;45.946;6.140;2023-12-28T06:07:37;7.63;;;4.20;;
21837;SDS011;11081;45.946;6.140;2023-12-28T06:10:07;6.60;;;4.00;;
21837;SDS011;11081;45.946;6.140;2023-12-28T06:12:36;8.10;;;4.07;;
21837;SDS011;11081;45.946;6.140;2023-12-28T06:15:04;7.63;;;4.37;;
21837;SDS011;11081;45.946;6.140;2023-12-28T06:17:33;8.37;;;4.30;;
21837;SDS011;11081;45.946;6.140;2023-12-28T06:20:01;7.00;;;4.20;;
21837;SDS011;11081;45.946;6.140;2023-12-28T06:22:29;10.10;;;4.67;;
21837;SDS011;11081;45.946;6.140;2023-12-28T06:24:57;6.40;;;4.17;;
21837;SDS011;11081;45.946;6.140;2023-12-28T06:27:26;9.57;;;4.33;;
21837;SDS011;11081;45.946;6.140;2023-12-28T06:29:54;6.60;;;3.53;;
21837;SDS011;11081;45.946;6.140;2023-12-28T06:32:22;8.80;;;5.23;;
21837;SDS011;11081;45.946;6.140;2023-12-28T06:34:52;12.03;;;5.57;;
21837;SDS011;11081;45.946;6.140;2023-12-28T06:37:20;9.67;;;4.40;;
21837;SDS011;11081;45.946;6.140;2023-12-28T06:39:48;7.57;;;4.83;;
21837;SDS011;11081;45.946;6.140;2023-12-28T06:42:16;7.57;;;4.40;;
21837;SDS011;11081;45.946;6.140;2023-12-28T06:44:46;9.40;;;4.33;;
21837;SDS011;11081;45.946;6.140;2023-12-28T06:47:13;7.87;;;4.37;;
21837;SDS011;11081;45.946;6.140;2023-12-28T06:49:41;5.97;;;3.77;;
21837;SDS011;11081;45.946;6.140;2023-12-28T06:52:10;8.27;;;4.20;;
21837;SDS011;11081;45.946;6.140;2023-12-28T06:54:37;9.00;;;4.80;;
21837;SDS011;11081;45.946;6.140;2023-12-28T06:57:05;10.13;;;4.83;;
21837;SDS011;11081;45.946;6.140;2023-12-28T06:59:33;9.57;;;4.77;;
21837;SDS011;11081;45.946;6.140;2023-12-28T07:02:03;7.97;;;5.20;;
21837;SDS011;11081;45.946;6.140;2023-12-28T07:04:31;10.30;;;5.63;;
21837;SDS011;11081;45.946;6.140;2023-12-28T07:06:59;11.37;;;5.23;;
21837;SDS011;11081;45.946;6.140;2023-12-28T07:09:27;8.73;;;4.43;;
21837;SDS011;11081;45.946;6.140;2023-12-28T07:11:55;7.20;;;4.40;;
21837;SDS011;11081;45.946;6.140;2023-12-28T07:14:23;7.40;;;4.20;;
21837;SDS011;11081;45.946;6.140;2023-12-28T07:16:51;8.07;;;4.67;;
21837;SDS011;11081;45.946;6.140;2023-12-28T07:19:20;7.23;;;3.90;;
21837;SDS011;11081;45.946;6.140;2023-12-28T07:21:48;7.47;;;3.87;;
21837;SDS011;11081;45.946;6.140;2023-12-28T07:24:16;5.20;;;3.20;;
21837;SDS011;11081;45.946;6.140;2023-12-28T07:26:44;6.53;;;3.97;;
21837;SDS011;11081;45.946;6.140;2023-12-28T07:29:12;9.27;;;3.47;;
21837;SDS011;11081;45.946;6.140;2023-12-28T07:31:40;6.23;;;3.77;;
21837;SDS011;11081;45.946;6.140;2023-12-28T07:34:08;7.03;;;3.83;;
21837;SDS011;11081;45.946;6.140;2023-12-28T07:36:38;5.23;;;3.30;;
21837;SDS011;11081;45.946;6.140;2023-12-28T07:39:09;5.83;;;3.97;;
21837;SDS011;11081;45.946;6.140;2023-12-28T07:41:37;5.93;;;3.63;;
21837;SDS011;11081;45.946;6.140;2023-12-28T07:44:05;7.20;;;4.37;;
21837;SDS011;11081;45.946;6.140;2023-12-28T07:46:33;9.63;;;5.40;;
21837;SDS011;11081;45.946;6.140;2023-12-28T07:49:00;11.27;;;7.13;;
21837;SDS011;11081;45.946;6.140;2023-12-28T07:51:29;11.80;;;7.77;;
21837;SDS011;11081;45.946;6.140;2023-12-28T07:53:58;11.13;;;6.40;;
21837;SDS011;11081;45.946;6.140;2023-12-28T07:56:26;15.13;;;6.97;;
21837;SDS011;11081;45.946;6.140;2023-12-28T07:58:54;8.83;;;5.47;;
21837;SDS011;11081;45.946;6.140;2023-12-28T08:01:22;10.03;;;4.60;;
21837;SDS011;11081;45.946;6.140;2023-12-28T08:03:50;7.87;;;4.93;;
21837;SDS011;11081;45.946;6.140;2023-12-28T08:06:18;6.47;;;4.10;;
21837;SDS011;11081;45.946;6.140;2023-12-28T08:08:46;5.23;;;3.50;;
21837;SDS011;11081;45.946;6.140;2023-12-28T08:11:15;6.13;;;3.60;;
21837;SDS011;11081;45.946;6.140;2023-12-28T08:13:43;6.77;;;3.60;;
21837;SDS011;11081;45.946;6.140;2023-12-28T08:16:11;7.63;;;3.97;;
21837;SDS011;11081;45.946;6.140;2023-12-28T08:18:39;5.20;;;2.97;;
21837;SDS011;11081;45.946;6.140;2023-12-28T08:21:08;7.43;;;3.03;;
21837;SDS011;11081;45.946;6.140;2023-12-28T08:23:35;5.87;;;3.40;;
21837;SDS011;11081;45.946;6.140;2023-12-28T08:26:03;5.27;;;3.43;;
21837;SDS011;11081;45.946;6.140;2023-12-28T08:28:34;5.47;;;3.20;;
21837;SDS011;11081;45.946;6.140;2023-12-28T08:31:02;5.30;;;2.87;;
21837;SDS011;11081;45.946;6.140;2023-12-28T08:33:31;5.23;;;3.13;;
21837;SDS011;11081;45.946;6.140;2023-12-28T08:35:59;8.03;;;3.20;;
21837;SDS011;11081;45.946;6.140;2023-12-28T08:38:27;5.23;;;3.00;;
21837;SDS011;11081;45.946;6.140;2023-12-28T08:40:55;6.70;;;2.90;;
21837;SDS011;11081;45.946;6.140;2023-12-28T08:43:23;6.50;;;3.40;;
21837;SDS011;11081;45.946;6.140;2023-12-28T08:45:53;6.77;;;3.70;;
21837;SDS011;11081;45.946;6.140;2023-12-28T08:48:22;7.17;;;4.07;;
21837;SDS011;11081;45.946;6.140;2023-12-28T08:50:50;6.20;;;4.10;;
21837;SDS011;11081;45.946;6.140;2023-12-28T08:53:18;8.93;;;3.30;;
21837;SDS011;11081;45.946;6.140;2023-12-28T08:55:46;5.10;;;3.07;;
21837;SDS011;11081;45.946;6.140;2023-12-28T08:58:14;9.23;;;4.07;;
21837;SDS011;11081;45.946;6.140;2023-12-28T09:00:42;8.53;;;3.60;;
21837;SDS011;11081;45.946;6.140;2023-12-28T09:03:13;4.67;;;2.90;;
21837;SDS011;11081;45.946;6.140;2023-12-28T09:05:41;6.23;;;3.50;;
21837;SDS011;11081;45.946;6.140;2023-12-28T09:08:09;7.90;;;3.50;;
21837;SDS011;11081;45.946;6.140;2023-12-28T09:10:37;6.13;;;3.03;;
21837;SDS011;11081;45.946;6.140;2023-12-28T09:13:07;6.70;;;4.00;;
21837;SDS011;11081;45.946;6.140;2023-12-28T09:15:42;12.70;;;5.20;;
21837;SDS011;11081;45.946;6.140;2023-12-28T09:18:10;8.60;;;4.40;;
21837;SDS011;11081;45.946;6.140;2023-12-28T09:20:39;6.77;;;3.63;;
21837;SDS011;11081;45.946;6.140;2023-12-28T09:23:07;8.00;;;3.73;;
21837;SDS011;11081;45.946;6.140;2023-12-28T09:25:36;4.33;;;3.13;;
21837;SDS011;11081;45.946;6.140;2023-12-28T09:28:05;5.50;;;3.20;;
21837;SDS011;11081;45.946;6.140;2023-12-28T09:30:33;5.73;;;3.13;;
21837;SDS011;11081;45.946;6.140;2023-12-28T09:33:01;4.03;;;2.50;;
21837;SDS011;11081;45.946;6.140;2023-12-28T09:35:29;5.07;;;2.80;;
21837;SDS011;11081;45.946;6.140;2023-12-28T09:37:58;4.53;;;2.63;;
21837;SDS011;11081;45.946;6.140;2023-12-28T09:40:26;11.47;;;3.83;;
21837;SDS011;11081;45.946;6.140;2023-12-28T09:42:57;5.27;;;3.37;;
21837;SDS011;11081;45.946;6.140;2023-12-28T09:45:31;6.40;;;3.70;;
21837;SDS011;11081;45.946;6.140;2023-12-28T09:47:59;9.90;;;3.80;;
21837;SDS011;11081;45.946;6.140;2023-12-28T09:50:29;8.13;;;4.33;;
21837;SDS011;11081;45.946;6.140;2023-12-28T09:52:58;8.70;;;4.40;;
21837;SDS011;11081;45.946;6.140;2023-12-28T09:55:27;9.27;;;4.50;;
21837;SDS011;11081;45.946;6.140;2023-12-28T09:57:54;5.87;;;3.80;;
21837;SDS011;11081;45.946;6.140;2023-12-28T10:00:25;6.63;;;3.90;;
21837;SDS011;11081;45.946;6.140;2023-12-28T10:02:53;7.43;;;4.70;;
21837;SDS011;11081;45.946;6.140;2023-12-28T10:05:21;6.33;;;4.47;;
21837;SDS011;11081;45.946;6.140;2023-12-28T10:07:50;5.67;;;3.90;;
21837;SDS011;11081;45.946;6.140;2023-12-28T10:10:19;9.80;;;5.00;;
21837;SDS011;11081;45.946;6.140;2023-12-28T10:12:48;6.80;;;3.80;;
21837;SDS011;11081;45.946;6.140;2023-12-28T10:15:17;11.00;;;5.33;;
21837;SDS011;11081;45.946;6.140;2023-12-28T10:17:45;7.93;;;4.40;;
21837;SDS011;11081;45.946;6.140;2023-12-28T10:20:14;6.13;;;3.97;;
21837;SDS011;11081;45.946;6.140;2023-12-28T10:22:42;6.63;;;3.87;;
21837;SDS011;11081;45.946;6.140;2023-12-28T10:25:11;6.97;;;3.70;;
21837;SDS011;11081;45.946;6.140;2023-12-28T10:27:41;8.20;;;4.13;;
21837;SDS011;11081;45.946;6.140;2023-12-28T10:30:10;14.27;;;9.20;;
21837;SDS011;11081;45.946;6.140;2023-12-28T10:32:40;14.23;;;9.00;;
21837;SDS011;11081;45.946;6.140;2023-12-28T10:35:08;15.90;;;11.20;;
21837;SDS011;11081;45.946;6.140;2023-12-28T10:37:37;14.37;;;9.70;;
21837;SDS011;11081;45.946;6.140;2023-12-28T10:40:11;12.53;;;8.87;;
21837;SDS011;11081;45.946;6.140;2023-12-28T10:42:46;19.43;;;8.97;;
21837;SDS011;11081;45.946;6.140;2023-12-28T10:45:19;13.17;;;8.00;;
21837;SDS011;11081;45.946;6.140;2023-12-28T10:48:04;11.07;;;7.17;;
21837;SDS011;11081;45.946;6.140;2023-12-28T10:50:37;12.17;;;7.17;;
21837;SDS011;11081;45.946;6.140;2023-12-28T10:53:11;11.63;;;5.93;;
21837;SDS011;11081;45.946;6.140;2023-12-28T10:55:48;5.93;;;3.30;;
21837;SDS011;11081;45.946;6.140;2023-12-28T10:58:30;6.37;;;3.17;;
21837;SDS011;11081;45.946;6.140;2023-12-28T11:01:06;5.33;;;3.10;;
21837;SDS011;11081;45.946;6.140;2023-12-28T11:03:37;9.97;;;5.57;;
21837;SDS011;11081;45.946;6.140;2023-12-28T11:06:08;4.87;;;3.60;;
21837;SDS011;11081;45.946;6.140;2023-12-28T11:08:38;5.30;;;2.80;;
21837;SDS011;11081;45.946;6.140;2023-12-28T11:11:09;5.27;;;3.30;;
21837;SDS011;11081;45.946;6.140;2023-12-28T11:13:38;5.67;;;2.87;;
21837;SDS011;11081;45.946;6.140;2023-12-28T11:16:07;4.13;;;3.07;;
21837;SDS011;11081;45.946;6.140;2023-12-28T11:18:36;5.77;;;3.10;;
21837;SDS011;11081;45.946;6.140;2023-12-28T11:21:04;6.07;;;3.50;;
21837;SDS011;11081;45.946;6.140;2023-12-28T11:23:35;6.37;;;3.33;;
21837;SDS011;11081;45.946;6.140;2023-12-28T11:26:03;5.07;;;3.07;;
21837;SDS011;11081;45.946;6.140;2023-12-28T11:28:44;6.57;;;3.57;;
21837;SDS011;11081;45.946;6.140;2023-12-28T11:31:13;5.37;;;3.50;;
21837;SDS011;11081;45.946;6.140;2023-12-28T11:33:45;6.77;;;3.03;;
21837;SDS011;11081;45.946;6.140;2023-12-28T11:36:19;4.63;;;3.23;;
21837;SDS011;11081;45.946;6.140;2023-12-28T11:38:50;5.03;;;2.77;;
21837;SDS011;11081;45.946;6.140;2023-12-28T11:41:21;4.90;;;3.40;;
21837;SDS011;11081;45.946;6.140;2023-12-28T11:43:54;6.72;;;3.65;;
21837;SDS011;11081;45.946;6.140;2023-12-28T11:46:22;10.10;;;4.20;;
21837;SDS011;11081;45.946;6.140;2023-12-28T11:48:51;5.68;;;3.45;;
21837;SDS011;11081;45.946;6.140;2023-12-28T11:51:19;5.80;;;4.13;;
21837;SDS011;11081;45.946;6.140;2023-12-28T11:53:47;10.05;;;4.40;;
21837;SDS011;11081;45.946;6.140;2023-12-28T11:56:16;6.70;;;4.13;;
21837;SDS011;11081;45.946;6.140;2023-12-28T11:58:44;7.87;;;3.70;;
21837;SDS011;11081;45.946;6.140;2023-12-28T12:01:15;8.75;;;4.25;;
21837;SDS011;11081;45.946;6.140;2023-12-28T12:03:43;8.03;;;4.23;;
21837;SDS011;11081;45.946;6.140;2023-12-28T12:06:11;5.65;;;3.15;;
21837;SDS011;11081;45.946;6.140;2023-12-28T12:08:40;5.90;;;3.57;;
21837;SDS011;11081;45.946;6.140;2023-12-28T12:11:08;4.47;;;2.95;;
21837;SDS011;11081;45.946;6.140;2023-12-28T12:13:37;8.88;;;4.03;;
21837;SDS011;11081;45.946;6.140;2023-12-28T12:16:05;6.50;;;3.70;;
21837;SDS011;11081;45.946;6.140;2023-12-28T12:18:35;7.53;;;3.58;;
21837;SDS011;11081;45.946;6.140;2023-12-28T12:21:04;5.20;;;2.97;;
21837;SDS011;11081;45.946;6.140;2023-12-28T12:23:33;5.15;;;3.28;;
21837;SDS011;11081;45.946;6.140;2023-12-28T12:26:04;4.60;;;2.92;;
21837;SDS011;11081;45.946;6.140;2023-12-28T12:28:32;4.88;;;3.15;;
21837;SDS011;11081;45.946;6.140;2023-12-28T12:31:02;5.38;;;3.10;;
21837;SDS011;11081;45.946;6.140;2023-12-28T12:33:31;9.27;;;3.25;;
21837;SDS011;11081;45.946;6.140;2023-12-28T12:36:01;7.55;;;3.20;;
21837;SDS011;11081;45.946;6.140;2023-12-28T12:38:29;4.40;;;3.08;;
21837;SDS011;11081;45.946;6.140;2023-12-28T12:40:58;9.13;;;3.22;;
21837;SDS011;11081;45.946;6.140;2023-12-28T12:43:26;6.67;;;3.00;;
21837;SDS011;11081;45.946;6.140;2023-12-28T12:45:54;7.97;;;3.50;;
21837;SDS011;11081;45.946;6.140;2023-12-28T12:48:22;7.63;;;3.08;;
21837;SDS011;11081;45.946;6.140;2023-12-28T12:50:50;6.88;;;3.45;;
21837;SDS011;11081;45.946;6.140;2023-12-28T12:53:20;4.25;;;3.08;;
21837;SDS011;11081;45.946;6.140;2023-12-28T12:55:49;4.95;;;3.05;;
21837;SDS011;11081;45.946;6.140;2023-12-28T12:58:22;7.00;;;3.30;;
21837;SDS011;11081;45.946;6.140;2023-12-28T13:00:50;5.07;;;2.97;;
21837;SDS011;11081;45.946;6.140;2023-12-28T13:03:19;6.75;;;3.30;;
21837;SDS011;11081;45.946;6.140;2023-12-28T13:05:47;6.00;;;3.03;;
21837;SDS011;11081;45.946;6.140;2023-12-28T13:08:15;5.25;;;2.97;;
21837;SDS011;11081;45.946;6.140;2023-12-28T13:10:45;6.35;;;3.40;;
21837;SDS011;11081;45.946;6.140;2023-12-28T13:13:13;6.65;;;3.55;;
21837;SDS011;11081;45.946;6.140;2023-12-28T13:15:41;5.93;;;2.92;;
21837;SDS011;11081;45.946;6.140;2023-12-28T13:18:09;5.20;;;3.47;;
21837;SDS011;11081;45.946;6.140;2023-12-28T13:20:37;8.60;;;3.50;;
21837;SDS011;11081;45.946;6.140;2023-12-28T13:23:05;8.55;;;3.92;;
21837;SDS011;11081;45.946;6.140;2023-12-28T13:25:34;5.90;;;3.17;;
21837;SDS011;11081;45.946;6.140;2023-12-28T13:28:03;5.63;;;3.50;;
21837;SDS011;11081;45.946;6.140;2023-12-28T13:30:31;7.00;;;3.65;;
21837;SDS011;11081;45.946;6.140;2023-12-28T13:33:00;7.78;;;3.67;;
21837;SDS011;11081;45.946;6.140;2023-12-28T13:35:28;10.18;;;3.80;;
21837;SDS011;11081;45.946;6.140;2023-12-28T13:37:56;6.90;;;4.25;;
21837;SDS011;11081;45.946;6.140;2023-12-28T13:40:24;6.35;;;3.40;;
21837;SDS011;11081;45.946;6.140;2023-12-28T13:42:52;7.40;;;3.65;;
21837;SDS011;11081;45.946;6.140;2023-12-28T13:45:22;4.90;;;3.67;;
21837;SDS011;11081;45.946;6.140;2023-12-28T13:47:50;9.65;;;4.07;;
21837;SDS011;11081;45.946;6.140;2023-12-28T13:50:18;4.45;;;3.25;;
21837;SDS011;11081;45.946;6.140;2023-12-28T13:52:47;7.57;;;3.53;;
21837;SDS011;11081;45.946;6.140;2023-12-28T13:55:15;4.93;;;3.53;;
21837;SDS011;11081;45.946;6.140;2023-12-28T13:57:43;7.13;;;4.13;;
21837;SDS011;11081;45.946;6.140;2023-12-28T14:00:11;7.75;;;4.80;;
21837;SDS011;11081;45.946;6.140;2023-12-28T14:02:42;7.75;;;5.03;;
21837;SDS011;11081;45.946;6.140;2023-12-28T14:05:09;7.80;;;5.03;;
21837;SDS011;11081;45.946;6.140;2023-12-28T14:07:38;10.68;;;5.28;;
21837;SDS011;11081;45.946;6.140;2023-12-28T14:10:06;7.70;;;5.30;;
21837;SDS011;11081;45.946;6.140;2023-12-28T14:12:35;11.73;;;5.20;;
21837;SDS011;11081;45.946;6.140;2023-12-28T14:15:03;7.93;;;4.15;;
21837;SDS011;11081;45.946;6.140;2023-12-28T14:17:31;7.73;;;3.80;;
21837;SDS011;11081;45.946;6.140;2023-12-28T14:20:01;6.72;;;4.47;;
21837;SDS011;11081;45.946;6.140;2023-12-28T14:22:30;5.07;;;3.07;;
21837;SDS011;11081;45.946;6.140;2023-12-28T14:24:58;5.43;;;3.97;;
21837;SDS011;11081;45.946;6.140;2023-12-28T14:27:28;5.18;;;3.13;;
21837;SDS011;11081;45.946;6.140;2023-12-28T14:29:57;6.43;;;3.23;;
21837;SDS011;11081;45.946;6.140;2023-12-28T14:32:30;5.10;;;2.83;;
21837;SDS011;11081;45.946;6.140;2023-12-28T14:34:59;4.70;;;3.47;;
21837;SDS011;11081;45.946;6.140;2023-12-28T14:37:28;5.22;;;2.85;;
21837;SDS011;11081;45.946;6.140;2023-12-28T14:39:56;5.05;;;3.20;;
21837;SDS011;11081;45.946;6.140;2023-12-28T14:42:24;7.38;;;4.97;;
21837;SDS011;11081;45.946;6.140;2023-12-28T14:44:52;8.40;;;5.20;;
21837;SDS011;11081;45.946;6.140;2023-12-28T14:47:20;8.75;;;4.25;;
21837;SDS011;11081;45.946;6.140;2023-12-28T14:49:48;6.93;;;4.03;;
21837;SDS011;11081;45.946;6.140;2023-12-28T14:52:17;7.32;;;4.18;;